Owen Sound, Canada
Current Conditions -  °F | °C
As of 1:00 PM on Sunday 21 Dec 2014 (Local Time) from CYVV Reporting Station
Overcast Overcast  
Wind Chill: 26°   Ceiling: 3000
Heat Index: 32°   Visibility: 15mi
Dew Point: 25°   Wind: 6mph
Humidity: 75%   Direction: 200°SSW
Pressure: 30.25"   Gusts: NA
Location:  44.56°N, 80.94°W
Report Text: CYVV 211800Z 20005KT 15SM OVC030 M00/M04 A3025 RMK SC8 SLP254
Loading
Personal Weather Stations






























Interactive Weather Map New forecast layout! Learn more

10-Day Weather Forecast

Advertisements
Track Severe Weather on mobile